sensor_id;sensor_type;location;lat;lon;timestamp;P1;durP1;ratioP1;P2;durP2;ratioP2
69005;SDS011;56061;51.748;19.620;2023-03-05T00:01:16;36.80;;;11.90;;
69005;SDS011;56061;51.748;19.620;2023-03-05T00:03:52;28.40;;;10.20;;
69005;SDS011;56061;51.748;19.620;2023-03-05T00:06:21;26.60;;;7.80;;
69005;SDS011;56061;51.748;19.620;2023-03-05T00:08:49;19.20;;;7.10;;
69005;SDS011;56061;51.748;19.620;2023-03-05T00:11:17;21.70;;;7.10;;
69005;SDS011;56061;51.748;19.620;2023-03-05T00:13:43;17.70;;;6.00;;
69005;SDS011;56061;51.748;19.620;2023-03-05T00:16:12;16.30;;;5.00;;
69005;SDS011;56061;51.748;19.620;2023-03-05T00:18:41;15.10;;;5.30;;
69005;SDS011;56061;51.748;19.620;2023-03-05T00:21:18;13.40;;;5.10;;
69005;SDS011;56061;51.748;19.620;2023-03-05T00:23:48;15.20;;;5.60;;
69005;SDS011;56061;51.748;19.620;2023-03-05T00:26:20;16.90;;;6.40;;
69005;SDS011;56061;51.748;19.620;2023-03-05T00:28:48;16.00;;;5.20;;
69005;SDS011;56061;51.748;19.620;2023-03-05T00:31:19;17.80;;;6.00;;
69005;SDS011;56061;51.748;19.620;2023-03-05T00:33:54;15.20;;;5.30;;
69005;SDS011;56061;51.748;19.620;2023-03-05T00:36:23;15.00;;;4.80;;
69005;SDS011;56061;51.748;19.620;2023-03-05T00:38:50;15.70;;;4.90;;
69005;SDS011;56061;51.748;19.620;2023-03-05T00:41:17;15.10;;;4.90;;
69005;SDS011;56061;51.748;19.620;2023-03-05T00:43:44;16.80;;;4.60;;
69005;SDS011;56061;51.748;19.620;2023-03-05T00:46:10;14.60;;;4.00;;
69005;SDS011;56061;51.748;19.620;2023-03-05T00:48:37;12.00;;;4.00;;
69005;SDS011;56061;51.748;19.620;2023-03-05T00:51:03;14.40;;;5.10;;
69005;SDS011;56061;51.748;19.620;2023-03-05T00:53:30;14.10;;;4.60;;
69005;SDS011;56061;51.748;19.620;2023-03-05T00:55:57;12.40;;;3.90;;
69005;SDS011;56061;51.748;19.620;2023-03-05T00:58:24;14.30;;;4.50;;
69005;SDS011;56061;51.748;19.620;2023-03-05T01:00:51;17.90;;;4.70;;
69005;SDS011;56061;51.748;19.620;2023-03-05T01:03:17;17.10;;;3.90;;
69005;SDS011;56061;51.748;19.620;2023-03-05T01:05:44;15.40;;;4.70;;
69005;SDS011;56061;51.748;19.620;2023-03-05T01:08:10;14.40;;;4.20;;
69005;SDS011;56061;51.748;19.620;2023-03-05T01:10:37;16.20;;;5.30;;
69005;SDS011;56061;51.748;19.620;2023-03-05T01:13:03;15.80;;;5.70;;
69005;SDS011;56061;51.748;19.620;2023-03-05T01:15:30;18.20;;;6.70;;
69005;SDS011;56061;51.748;19.620;2023-03-05T01:17:56;31.70;;;9.00;;
69005;SDS011;56061;51.748;19.620;2023-03-05T01:20:23;27.20;;;9.70;;
69005;SDS011;56061;51.748;19.620;2023-03-05T01:22:49;28.80;;;9.30;;
69005;SDS011;56061;51.748;19.620;2023-03-05T01:25:17;29.50;;;10.00;;
69005;SDS011;56061;51.748;19.620;2023-03-05T01:27:44;26.70;;;9.30;;
69005;SDS011;56061;51.748;19.620;2023-03-05T01:30:13;54.10;;;18.10;;
69005;SDS011;56061;51.748;19.620;2023-03-05T01:32:41;66.60;;;21.80;;
69005;SDS011;56061;51.748;19.620;2023-03-05T01:35:10;35.00;;;10.90;;
69005;SDS011;56061;51.748;19.620;2023-03-05T01:37:43;36.20;;;9.60;;
69005;SDS011;56061;51.748;19.620;2023-03-05T01:40:12;34.50;;;9.80;;
69005;SDS011;56061;51.748;19.620;2023-03-05T01:42:44;28.70;;;7.70;;
69005;SDS011;56061;51.748;19.620;2023-03-05T01:45:15;25.40;;;7.70;;
69005;SDS011;56061;51.748;19.620;2023-03-05T01:47:43;26.40;;;9.90;;
69005;SDS011;56061;51.748;19.620;2023-03-05T01:50:13;27.00;;;7.90;;
69005;SDS011;56061;51.748;19.620;2023-03-05T01:52:48;21.50;;;7.20;;
69005;SDS011;56061;51.748;19.620;2023-03-05T01:55:22;18.00;;;6.10;;
69005;SDS011;56061;51.748;19.620;2023-03-05T01:58:02;15.90;;;5.50;;
69005;SDS011;56061;51.748;19.620;2023-03-05T02:00:34;17.30;;;5.50;;
69005;SDS011;56061;51.748;19.620;2023-03-05T02:03:06;21.30;;;5.80;;
69005;SDS011;56061;51.748;19.620;2023-03-05T02:05:37;20.00;;;6.20;;
69005;SDS011;56061;51.748;19.620;2023-03-05T02:08:08;18.70;;;6.10;;
69005;SDS011;56061;51.748;19.620;2023-03-05T02:13:33;12.20;;;4.60;;
69005;SDS011;56061;51.748;19.620;2023-03-05T02:16:04;19.20;;;6.70;;
69005;SDS011;56061;51.748;19.620;2023-03-05T02:18:31;15.10;;;5.60;;
69005;SDS011;56061;51.748;19.620;2023-03-05T02:21:08;24.70;;;7.40;;
69005;SDS011;56061;51.748;19.620;2023-03-05T02:23:36;19.90;;;7.40;;
69005;SDS011;56061;51.748;19.620;2023-03-05T02:26:06;21.40;;;8.20;;
69005;SDS011;56061;51.748;19.620;2023-03-05T02:28:44;23.20;;;7.90;;
69005;SDS011;56061;51.748;19.620;2023-03-05T02:31:18;23.90;;;7.90;;
69005;SDS011;56061;51.748;19.620;2023-03-05T02:33:47;22.30;;;8.30;;
69005;SDS011;56061;51.748;19.620;2023-03-05T02:36:14;27.00;;;9.60;;
69005;SDS011;56061;51.748;19.620;2023-03-05T02:38:41;22.20;;;8.80;;
69005;SDS011;56061;51.748;19.620;2023-03-05T02:41:09;18.50;;;7.40;;
69005;SDS011;56061;51.748;19.620;2023-03-05T02:43:36;16.70;;;7.00;;
69005;SDS011;56061;51.748;19.620;2023-03-05T02:46:04;20.70;;;7.30;;
69005;SDS011;56061;51.748;19.620;2023-03-05T02:48:31;23.90;;;8.20;;
69005;SDS011;56061;51.748;19.620;2023-03-05T02:50:58;21.60;;;7.10;;
69005;SDS011;56061;51.748;19.620;2023-03-05T02:53:25;17.80;;;6.30;;
69005;SDS011;56061;51.748;19.620;2023-03-05T02:55:51;17.30;;;7.10;;
69005;SDS011;56061;51.748;19.620;2023-03-05T02:58:18;19.30;;;6.50;;
69005;SDS011;56061;51.748;19.620;2023-03-05T03:00:44;18.20;;;6.20;;
69005;SDS011;56061;51.748;19.620;2023-03-05T03:03:12;17.60;;;7.00;;
69005;SDS011;56061;51.748;19.620;2023-03-05T03:05:39;16.20;;;7.80;;
69005;SDS011;56061;51.748;19.620;2023-03-05T03:08:06;17.40;;;8.30;;
69005;SDS011;56061;51.748;19.620;2023-03-05T03:10:32;20.80;;;9.50;;
69005;SDS011;56061;51.748;19.620;2023-03-05T03:12:59;20.90;;;10.20;;
69005;SDS011;56061;51.748;19.620;2023-03-05T03:15:26;21.70;;;11.60;;
69005;SDS011;56061;51.748;19.620;2023-03-05T03:17:53;23.90;;;12.90;;
69005;SDS011;56061;51.748;19.620;2023-03-05T03:20:20;25.60;;;13.90;;
69005;SDS011;56061;51.748;19.620;2023-03-05T03:22:48;32.70;;;16.60;;
69005;SDS011;56061;51.748;19.620;2023-03-05T03:25:20;42.90;;;21.70;;
69005;SDS011;56061;51.748;19.620;2023-03-05T03:27:48;51.90;;;24.10;;
69005;SDS011;56061;51.748;19.620;2023-03-05T03:30:15;48.90;;;20.50;;
69005;SDS011;56061;51.748;19.620;2023-03-05T03:32:42;42.40;;;19.60;;
69005;SDS011;56061;51.748;19.620;2023-03-05T03:35:10;35.20;;;17.40;;
69005;SDS011;56061;51.748;19.620;2023-03-05T03:37:38;39.40;;;17.90;;
69005;SDS011;56061;51.748;19.620;2023-03-05T03:40:05;27.70;;;13.00;;
69005;SDS011;56061;51.748;19.620;2023-03-05T03:42:32;27.70;;;14.00;;
69005;SDS011;56061;51.748;19.620;2023-03-05T03:44:59;25.20;;;13.60;;
69005;SDS011;56061;51.748;19.620;2023-03-05T03:47:29;25.30;;;11.30;;
69005;SDS011;56061;51.748;19.620;2023-03-05T03:49:56;28.70;;;11.30;;
69005;SDS011;56061;51.748;19.620;2023-03-05T03:52:23;23.10;;;11.90;;
69005;SDS011;56061;51.748;19.620;2023-03-05T03:54:51;24.70;;;11.40;;
69005;SDS011;56061;51.748;19.620;2023-03-05T03:57:18;27.50;;;13.10;;
69005;SDS011;56061;51.748;19.620;2023-03-05T03:59:44;27.80;;;11.50;;
69005;SDS011;56061;51.748;19.620;2023-03-05T04:02:11;23.40;;;8.90;;
69005;SDS011;56061;51.748;19.620;2023-03-05T04:04:37;19.60;;;8.80;;
69005;SDS011;56061;51.748;19.620;2023-03-05T04:07:04;20.80;;;8.30;;
69005;SDS011;56061;51.748;19.620;2023-03-05T04:09:30;21.10;;;8.50;;
69005;SDS011;56061;51.748;19.620;2023-03-05T04:11:57;20.80;;;9.90;;
69005;SDS011;56061;51.748;19.620;2023-03-05T04:14:23;23.30;;;10.50;;
69005;SDS011;56061;51.748;19.620;2023-03-05T04:16:52;24.40;;;10.70;;
69005;SDS011;56061;51.748;19.620;2023-03-05T04:19:18;19.90;;;9.80;;
69005;SDS011;56061;51.748;19.620;2023-03-05T04:21:45;20.50;;;9.30;;
69005;SDS011;56061;51.748;19.620;2023-03-05T04:24:11;24.80;;;10.60;;
69005;SDS011;56061;51.748;19.620;2023-03-05T04:26:38;22.30;;;10.80;;
69005;SDS011;56061;51.748;19.620;2023-03-05T04:29:04;23.60;;;10.20;;
69005;SDS011;56061;51.748;19.620;2023-03-05T04:31:31;22.30;;;10.00;;
69005;SDS011;56061;51.748;19.620;2023-03-05T04:33:58;23.20;;;8.90;;
69005;SDS011;56061;51.748;19.620;2023-03-05T04:36:25;26.10;;;9.10;;
69005;SDS011;56061;51.748;19.620;2023-03-05T04:38:51;22.40;;;8.60;;
69005;SDS011;56061;51.748;19.620;2023-03-05T04:41:18;22.30;;;9.00;;
69005;SDS011;56061;51.748;19.620;2023-03-05T04:43:44;23.20;;;9.30;;
69005;SDS011;56061;51.748;19.620;2023-03-05T04:46:11;22.90;;;9.90;;
69005;SDS011;56061;51.748;19.620;2023-03-05T04:48:37;25.20;;;8.80;;
69005;SDS011;56061;51.748;19.620;2023-03-05T04:51:04;23.90;;;9.40;;
69005;SDS011;56061;51.748;19.620;2023-03-05T04:53:30;22.10;;;8.80;;
69005;SDS011;56061;51.748;19.620;2023-03-05T04:55:57;22.60;;;9.40;;
69005;SDS011;56061;51.748;19.620;2023-03-05T04:58:27;23.10;;;9.00;;
69005;SDS011;56061;51.748;19.620;2023-03-05T05:00:59;21.00;;;8.90;;
69005;SDS011;56061;51.748;19.620;2023-03-05T05:03:27;24.10;;;9.10;;
69005;SDS011;56061;51.748;19.620;2023-03-05T05:05:55;28.30;;;9.80;;
69005;SDS011;56061;51.748;19.620;2023-03-05T05:08:23;22.50;;;9.20;;
69005;SDS011;56061;51.748;19.620;2023-03-05T05:11:01;22.90;;;9.70;;
69005;SDS011;56061;51.748;19.620;2023-03-05T05:13:29;20.70;;;9.60;;
69005;SDS011;56061;51.748;19.620;2023-03-05T05:15:57;25.90;;;10.00;;
69005;SDS011;56061;51.748;19.620;2023-03-05T05:18:25;26.60;;;13.20;;
69005;SDS011;56061;51.748;19.620;2023-03-05T05:20:52;33.70;;;18.00;;
69005;SDS011;56061;51.748;19.620;2023-03-05T05:23:18;35.40;;;16.50;;
69005;SDS011;56061;51.748;19.620;2023-03-05T05:25:45;29.20;;;12.80;;
69005;SDS011;56061;51.748;19.620;2023-03-05T05:28:11;20.00;;;9.70;;
69005;SDS011;56061;51.748;19.620;2023-03-05T05:30:38;23.30;;;9.70;;
69005;SDS011;56061;51.748;19.620;2023-03-05T05:33:04;24.90;;;8.60;;
69005;SDS011;56061;51.748;19.620;2023-03-05T05:35:31;19.90;;;7.60;;
69005;SDS011;56061;51.748;19.620;2023-03-05T05:37:57;19.10;;;8.50;;
69005;SDS011;56061;51.748;19.620;2023-03-05T05:40:24;31.10;;;10.70;;
69005;SDS011;56061;51.748;19.620;2023-03-05T05:42:51;32.60;;;12.90;;
69005;SDS011;56061;51.748;19.620;2023-03-05T05:45:18;28.80;;;11.90;;
69005;SDS011;56061;51.748;19.620;2023-03-05T05:47:44;26.10;;;11.00;;
69005;SDS011;56061;51.748;19.620;2023-03-05T05:50:12;23.90;;;9.80;;
69005;SDS011;56061;51.748;19.620;2023-03-05T05:52:39;26.30;;;11.00;;
69005;SDS011;56061;51.748;19.620;2023-03-05T05:55:23;31.20;;;13.50;;
69005;SDS011;56061;51.748;19.620;2023-03-05T05:57:50;36.80;;;14.60;;
69005;SDS011;56061;51.748;19.620;2023-03-05T06:00:17;42.30;;;14.50;;
69005;SDS011;56061;51.748;19.620;2023-03-05T06:02:43;54.90;;;17.10;;
69005;SDS011;56061;51.748;19.620;2023-03-05T06:05:12;70.40;;;28.30;;
69005;SDS011;56061;51.748;19.620;2023-03-05T06:07:41;60.90;;;21.20;;
69005;SDS011;56061;51.748;19.620;2023-03-05T06:10:09;51.20;;;17.90;;
69005;SDS011;56061;51.748;19.620;2023-03-05T06:12:36;41.10;;;16.90;;
69005;SDS011;56061;51.748;19.620;2023-03-05T06:15:03;38.60;;;14.60;;
69005;SDS011;56061;51.748;19.620;2023-03-05T06:17:30;41.10;;;15.80;;
69005;SDS011;56061;51.748;19.620;2023-03-05T06:19:58;29.10;;;12.60;;
69005;SDS011;56061;51.748;19.620;2023-03-05T06:22:25;23.20;;;10.00;;
69005;SDS011;56061;51.748;19.620;2023-03-05T06:24:52;25.50;;;9.90;;
69005;SDS011;56061;51.748;19.620;2023-03-05T06:27:18;22.80;;;11.20;;
69005;SDS011;56061;51.748;19.620;2023-03-05T06:29:45;21.10;;;10.30;;
69005;SDS011;56061;51.748;19.620;2023-03-05T06:32:11;17.90;;;9.90;;
69005;SDS011;56061;51.748;19.620;2023-03-05T06:34:38;24.50;;;12.20;;
69005;SDS011;56061;51.748;19.620;2023-03-05T06:37:04;27.10;;;11.20;;
69005;SDS011;56061;51.748;19.620;2023-03-05T06:39:30;26.40;;;10.90;;
69005;SDS011;56061;51.748;19.620;2023-03-05T06:41:57;24.80;;;11.00;;
69005;SDS011;56061;51.748;19.620;2023-03-05T06:44:23;27.10;;;11.60;;
69005;SDS011;56061;51.748;19.620;2023-03-05T06:46:50;23.00;;;9.60;;
69005;SDS011;56061;51.748;19.620;2023-03-05T06:49:18;20.20;;;7.90;;
69005;SDS011;56061;51.748;19.620;2023-03-05T06:51:44;22.60;;;10.10;;
69005;SDS011;56061;51.748;19.620;2023-03-05T06:54:14;108.50;;;48.90;;
69005;SDS011;56061;51.748;19.620;2023-03-05T06:56:43;94.40;;;42.90;;
69005;SDS011;56061;51.748;19.620;2023-03-05T06:59:13;48.10;;;25.30;;
69005;SDS011;56061;51.748;19.620;2023-03-05T07:01:42;27.50;;;12.80;;
69005;SDS011;56061;51.748;19.620;2023-03-05T07:04:10;21.20;;;9.50;;
69005;SDS011;56061;51.748;19.620;2023-03-05T07:06:38;22.50;;;11.00;;
69005;SDS011;56061;51.748;19.620;2023-03-05T07:09:10;21.60;;;10.30;;
69005;SDS011;56061;51.748;19.620;2023-03-05T07:11:40;21.30;;;11.30;;
69005;SDS011;56061;51.748;19.620;2023-03-05T07:14:07;20.90;;;10.30;;
69005;SDS011;56061;51.748;19.620;2023-03-05T07:16:34;23.10;;;11.30;;
69005;SDS011;56061;51.748;19.620;2023-03-05T07:19:03;18.70;;;9.20;;
69005;SDS011;56061;51.748;19.620;2023-03-05T07:21:32;19.40;;;9.70;;
69005;SDS011;56061;51.748;19.620;2023-03-05T07:24:03;23.70;;;11.80;;
69005;SDS011;56061;51.748;19.620;2023-03-05T07:26:31;27.40;;;14.50;;
69005;SDS011;56061;51.748;19.620;2023-03-05T07:28:59;31.40;;;14.90;;
69005;SDS011;56061;51.748;19.620;2023-03-05T07:31:27;28.30;;;14.90;;
69005;SDS011;56061;51.748;19.620;2023-03-05T07:33:58;26.50;;;13.00;;
69005;SDS011;56061;51.748;19.620;2023-03-05T07:36:26;26.10;;;11.60;;
69005;SDS011;56061;51.748;19.620;2023-03-05T07:38:54;27.60;;;12.30;;
69005;SDS011;56061;51.748;19.620;2023-03-05T07:41:21;51.40;;;23.30;;
69005;SDS011;56061;51.748;19.620;2023-03-05T07:43:50;42.80;;;19.60;;
69005;SDS011;56061;51.748;19.620;2023-03-05T07:46:20;26.30;;;11.20;;
69005;SDS011;56061;51.748;19.620;2023-03-05T07:48:51;39.80;;;15.20;;
69005;SDS011;56061;51.748;19.620;2023-03-05T07:51:21;33.40;;;14.50;;
69005;SDS011;56061;51.748;19.620;2023-03-05T07:53:50;33.90;;;13.20;;
69005;SDS011;56061;51.748;19.620;2023-03-05T07:56:36;32.40;;;12.10;;
69005;SDS011;56061;51.748;19.620;2023-03-05T07:59:06;95.10;;;29.70;;
69005;SDS011;56061;51.748;19.620;2023-03-05T08:01:34;32.90;;;11.90;;
69005;SDS011;56061;51.748;19.620;2023-03-05T08:04:02;34.90;;;11.90;;
69005;SDS011;56061;51.748;19.620;2023-03-05T08:06:30;34.00;;;12.70;;
69005;SDS011;56061;51.748;19.620;2023-03-05T08:08:58;27.00;;;11.30;;
69005;SDS011;56061;51.748;19.620;2023-03-05T08:11:25;53.70;;;16.30;;
69005;SDS011;56061;51.748;19.620;2023-03-05T08:13:53;28.40;;;11.10;;
69005;SDS011;56061;51.748;19.620;2023-03-05T08:16:20;21.50;;;8.60;;
69005;SDS011;56061;51.748;19.620;2023-03-05T08:18:47;18.60;;;8.20;;
69005;SDS011;56061;51.748;19.620;2023-03-05T08:21:23;18.70;;;8.80;;
69005;SDS011;56061;51.748;19.620;2023-03-05T08:23:55;24.40;;;9.70;;
69005;SDS011;56061;51.748;19.620;2023-03-05T08:26:24;30.00;;;12.60;;
69005;SDS011;56061;51.748;19.620;2023-03-05T08:28:52;22.50;;;7.90;;
69005;SDS011;56061;51.748;19.620;2023-03-05T08:31:20;40.50;;;17.90;;
69005;SDS011;56061;51.748;19.620;2023-03-05T08:33:50;27.90;;;11.40;;
69005;SDS011;56061;51.748;19.620;2023-03-05T08:36:19;30.10;;;11.10;;
69005;SDS011;56061;51.748;19.620;2023-03-05T08:38:45;21.10;;;10.10;;
69005;SDS011;56061;51.748;19.620;2023-03-05T08:41:14;25.90;;;10.40;;
69005;SDS011;56061;51.748;19.620;2023-03-05T08:43:42;30.20;;;10.40;;
69005;SDS011;56061;51.748;19.620;2023-03-05T08:46:15;20.30;;;8.90;;
69005;SDS011;56061;51.748;19.620;2023-03-05T08:48:42;27.90;;;10.20;;
69005;SDS011;56061;51.748;19.620;2023-03-05T08:51:14;29.00;;;11.40;;
69005;SDS011;56061;51.748;19.620;2023-03-05T08:53:44;28.40;;;11.30;;
69005;SDS011;56061;51.748;19.620;2023-03-05T08:56:12;20.10;;;7.90;;
69005;SDS011;56061;51.748;19.620;2023-03-05T08:58:40;16.90;;;6.60;;
69005;SDS011;56061;51.748;19.620;2023-03-05T09:01:07;20.20;;;7.90;;
69005;SDS011;56061;51.748;19.620;2023-03-05T09:03:34;20.30;;;9.00;;
69005;SDS011;56061;51.748;19.620;2023-03-05T09:06:03;33.90;;;14.50;;
69005;SDS011;56061;51.748;19.620;2023-03-05T09:08:32;29.20;;;14.10;;
69005;SDS011;56061;51.748;19.620;2023-03-05T09:11:04;58.10;;;25.40;;
69005;SDS011;56061;51.748;19.620;2023-03-05T09:13:32;59.70;;;26.20;;
69005;SDS011;56061;51.748;19.620;2023-03-05T09:16:02;51.80;;;21.90;;
69005;SDS011;56061;51.748;19.620;2023-03-05T09:18:30;52.20;;;20.50;;
69005;SDS011;56061;51.748;19.620;2023-03-05T09:20:57;81.50;;;31.70;;
69005;SDS011;56061;51.748;19.620;2023-03-05T09:23:29;89.70;;;36.60;;
69005;SDS011;56061;51.748;19.620;2023-03-05T09:25:55;100.50;;;43.60;;
69005;SDS011;56061;51.748;19.620;2023-03-05T09:28:22;92.10;;;40.70;;
69005;SDS011;56061;51.748;19.620;2023-03-05T09:30:48;70.10;;;31.50;;
69005;SDS011;56061;51.748;19.620;2023-03-05T09:33:15;49.60;;;24.00;;
69005;SDS011;56061;51.748;19.620;2023-03-05T09:35:41;43.80;;;20.70;;
69005;SDS011;56061;51.748;19.620;2023-03-05T09:38:08;31.60;;;16.50;;
69005;SDS011;56061;51.748;19.620;2023-03-05T09:40:58;35.00;;;16.50;;
69005;SDS011;56061;51.748;19.620;2023-03-05T09:50:27;36.30;;;14.60;;
69005;SDS011;56061;51.748;19.620;2023-03-05T09:52:53;30.40;;;12.70;;
69005;SDS011;56061;51.748;19.620;2023-03-05T09:55:26;44.30;;;16.50;;
69005;SDS011;56061;51.748;19.620;2023-03-05T09:58:15;26.50;;;10.00;;
69005;SDS011;56061;51.748;19.620;2023-03-05T10:00:47;28.00;;;12.10;;
69005;SDS011;56061;51.748;19.620;2023-03-05T10:03:28;28.40;;;12.00;;
69005;SDS011;56061;51.748;19.620;2023-03-05T10:06:23;27.80;;;13.70;;
69005;SDS011;56061;51.748;19.620;2023-03-05T10:11:42;20.00;;;9.60;;
69005;SDS011;56061;51.748;19.620;2023-03-05T10:20:21;21.10;;;11.20;;
69005;SDS011;56061;51.748;19.620;2023-03-05T10:26:04;19.30;;;9.10;;
69005;SDS011;56061;51.748;19.620;2023-03-05T10:34:18;26.40;;;13.10;;
69005;SDS011;56061;51.748;19.620;2023-03-05T10:40:08;16.70;;;8.60;;
69005;SDS011;56061;51.748;19.620;2023-03-05T10:42:57;19.60;;;9.00;;
69005;SDS011;56061;51.748;19.620;2023-03-05T10:45:45;33.30;;;16.50;;
69005;SDS011;56061;51.748;19.620;2023-03-05T10:54:26;21.70;;;9.90;;
69005;SDS011;56061;51.748;19.620;2023-03-05T10:59:47;25.90;;;12.40;;
69005;SDS011;56061;51.748;19.620;2023-03-05T11:02:16;51.50;;;26.00;;
69005;SDS011;56061;51.748;19.620;2023-03-05T11:04:44;125.00;;;57.20;;
69005;SDS011;56061;51.748;19.620;2023-03-05T11:09:42;34.90;;;17.00;;
69005;SDS011;56061;51.748;19.620;2023-03-05T11:12:19;33.40;;;17.00;;
69005;SDS011;56061;51.748;19.620;2023-03-05T11:15:27;39.80;;;17.70;;
69005;SDS011;56061;51.748;19.620;2023-03-05T11:18:15;20.30;;;10.50;;
69005;SDS011;56061;51.748;19.620;2023-03-05T11:20:44;17.80;;;9.40;;
69005;SDS011;56061;51.748;19.620;2023-03-05T11:23:22;13.30;;;6.50;;
69005;SDS011;56061;51.748;19.620;2023-03-05T11:25:55;15.90;;;8.20;;
69005;SDS011;56061;51.748;19.620;2023-03-05T11:28:56;17.60;;;8.80;;
69005;SDS011;56061;51.748;19.620;2023-03-05T11:31:30;14.20;;;7.90;;
69005;SDS011;56061;51.748;19.620;2023-03-05T11:36:38;17.30;;;8.90;;
69005;SDS011;56061;51.748;19.620;2023-03-05T11:41:37;13.30;;;6.60;;
69005;SDS011;56061;51.748;19.620;2023-03-05T11:50:12;12.90;;;6.20;;
69005;SDS011;56061;51.748;19.620;2023-03-05T11:52:50;14.50;;;6.60;;
69005;SDS011;56061;51.748;19.620;2023-03-05T11:55:45;14.60;;;7.10;;
69005;SDS011;56061;51.748;19.620;2023-03-05T11:58:38;16.10;;;6.90;;
69005;SDS011;56061;51.748;19.620;2023-03-05T12:01:15;13.30;;;6.70;;
69005;SDS011;56061;51.748;19.620;2023-03-05T12:03:42;14.40;;;7.60;;
69005;SDS011;56061;51.748;19.620;2023-03-05T12:06:19;12.50;;;6.10;;
69005;SDS011;56061;51.748;19.620;2023-03-05T12:08:54;14.70;;;7.40;;
69005;SDS011;56061;51.748;19.620;2023-03-05T12:11:28;12.00;;;6.50;;
69005;SDS011;56061;51.748;19.620;2023-03-05T12:14:03;14.80;;;7.00;;
69005;SDS011;56061;51.748;19.620;2023-03-05T12:17:03;18.20;;;8.90;;
69005;SDS011;56061;51.748;19.620;2023-03-05T12:19:50;14.70;;;8.40;;
69005;SDS011;56061;51.748;19.620;2023-03-05T12:22:24;21.70;;;10.10;;
69005;SDS011;56061;51.748;19.620;2023-03-05T12:25:44;18.00;;;9.00;;
69005;SDS011;56061;51.748;19.620;2023-03-05T12:28:16;22.90;;;11.90;;
69005;SDS011;56061;51.748;19.620;2023-03-05T12:33:37;19.20;;;9.70;;
69005;SDS011;56061;51.748;19.620;2023-03-05T12:38:51;23.40;;;9.40;;
69005;SDS011;56061;51.748;19.620;2023-03-05T12:44:18;24.50;;;10.60;;
69005;SDS011;56061;51.748;19.620;2023-03-05T12:47:14;26.60;;;9.90;;
69005;SDS011;56061;51.748;19.620;2023-03-05T12:49:45;15.40;;;7.60;;
69005;SDS011;56061;51.748;19.620;2023-03-05T12:52:21;18.50;;;10.30;;
69005;SDS011;56061;51.748;19.620;2023-03-05T12:55:16;18.10;;;9.90;;
69005;SDS011;56061;51.748;19.620;2023-03-05T12:57:52;12.40;;;6.80;;
69005;SDS011;56061;51.748;19.620;2023-03-05T13:00:39;15.80;;;7.60;;
69005;SDS011;56061;51.748;19.620;2023-03-05T13:03:17;19.00;;;9.00;;
69005;SDS011;56061;51.748;19.620;2023-03-05T13:05:57;20.10;;;10.20;;
69005;SDS011;56061;51.748;19.620;2023-03-05T13:08:28;25.50;;;11.20;;
69005;SDS011;56061;51.748;19.620;2023-03-05T13:11:03;15.40;;;8.00;;
69005;SDS011;56061;51.748;19.620;2023-03-05T13:13:40;14.70;;;7.30;;
69005;SDS011;56061;51.748;19.620;2023-03-05T13:16:28;14.80;;;8.20;;
69005;SDS011;56061;51.748;19.620;2023-03-05T13:19:02;13.90;;;6.80;;
69005;SDS011;56061;51.748;19.620;2023-03-05T13:21:31;15.30;;;8.50;;
69005;SDS011;56061;51.748;19.620;2023-03-05T13:24:00;15.40;;;7.90;;
69005;SDS011;56061;51.748;19.620;2023-03-05T13:26:34;28.00;;;13.40;;
69005;SDS011;56061;51.748;19.620;2023-03-05T13:31:46;20.70;;;9.90;;
69005;SDS011;56061;51.748;19.620;2023-03-05T13:34:24;41.70;;;16.90;;
69005;SDS011;56061;51.748;19.620;2023-03-05T13:37:20;45.10;;;16.50;;
69005;SDS011;56061;51.748;19.620;2023-03-05T13:39:56;26.70;;;13.30;;
69005;SDS011;56061;51.748;19.620;2023-03-05T13:42:32;35.70;;;19.10;;
69005;SDS011;56061;51.748;19.620;2023-03-05T13:48:00;21.50;;;10.80;;
69005;SDS011;56061;51.748;19.620;2023-03-05T13:53:19;27.20;;;16.10;;
69005;SDS011;56061;51.748;19.620;2023-03-05T13:55:49;20.60;;;10.90;;
69005;SDS011;56061;51.748;19.620;2023-03-05T13:58:50;25.60;;;11.70;;
69005;SDS011;56061;51.748;19.620;2023-03-05T14:01:30;26.00;;;11.80;;
69005;SDS011;56061;51.748;19.620;2023-03-05T14:12:24;17.10;;;9.60;;
69005;SDS011;56061;51.748;19.620;2023-03-05T14:15:23;16.10;;;10.10;;
69005;SDS011;56061;51.748;19.620;2023-03-05T14:17:52;18.00;;;9.30;;
69005;SDS011;56061;51.748;19.620;2023-03-05T14:23:40;24.80;;;9.60;;
69005;SDS011;56061;51.748;19.620;2023-03-05T14:26:28;17.30;;;7.10;;
69005;SDS011;56061;51.748;19.620;2023-03-05T14:29:02;14.70;;;5.80;;
69005;SDS011;56061;51.748;19.620;2023-03-05T14:31:52;15.40;;;7.70;;
69005;SDS011;56061;51.748;19.620;2023-03-05T14:34:27;14.90;;;6.90;;
69005;SDS011;56061;51.748;19.620;2023-03-05T14:36:59;25.20;;;8.80;;
69005;SDS011;56061;51.748;19.620;2023-03-05T14:39:39;17.90;;;6.40;;
69005;SDS011;56061;51.748;19.620;2023-03-05T14:42:32;41.50;;;12.80;;
69005;SDS011;56061;51.748;19.620;2023-03-05T14:45:16;32.50;;;11.00;;
69005;SDS011;56061;51.748;19.620;2023-03-05T14:47:45;30.70;;;12.50;;
69005;SDS011;56061;51.748;19.620;2023-03-05T14:50:27;31.00;;;13.60;;
69005;SDS011;56061;51.748;19.620;2023-03-05T14:53:09;15.20;;;7.70;;
69005;SDS011;56061;51.748;19.620;2023-03-05T14:55:40;13.60;;;5.90;;
69005;SDS011;56061;51.748;19.620;2023-03-05T14:58:16;15.60;;;6.50;;
69005;SDS011;56061;51.748;19.620;2023-03-05T15:00:47;11.80;;;4.90;;
69005;SDS011;56061;51.748;19.620;2023-03-05T15:03:17;12.10;;;5.00;;
69005;SDS011;56061;51.748;19.620;2023-03-05T15:05:47;19.50;;;8.40;;
69005;SDS011;56061;51.748;19.620;2023-03-05T15:08:21;18.10;;;8.10;;
69005;SDS011;56061;51.748;19.620;2023-03-05T15:10:55;16.50;;;6.60;;
69005;SDS011;56061;51.748;19.620;2023-03-05T15:13:25;22.90;;;10.20;;
69005;SDS011;56061;51.748;19.620;2023-03-05T15:15:52;19.80;;;9.30;;
69005;SDS011;56061;51.748;19.620;2023-03-05T15:18:20;14.50;;;7.60;;
69005;SDS011;56061;51.748;19.620;2023-03-05T15:20:48;12.30;;;6.80;;
69005;SDS011;56061;51.748;19.620;2023-03-05T15:23:17;15.40;;;8.40;;
69005;SDS011;56061;51.748;19.620;2023-03-05T15:25:44;14.00;;;7.80;;
69005;SDS011;56061;51.748;19.620;2023-03-05T15:28:11;17.90;;;9.10;;
69005;SDS011;56061;51.748;19.620;2023-03-05T15:30:40;13.40;;;7.10;;
69005;SDS011;56061;51.748;19.620;2023-03-05T15:33:12;15.30;;;7.50;;
69005;SDS011;56061;51.748;19.620;2023-03-05T15:35:40;20.60;;;8.60;;
69005;SDS011;56061;51.748;19.620;2023-03-05T15:38:07;15.30;;;7.30;;
69005;SDS011;56061;51.748;19.620;2023-03-05T15:40:34;14.10;;;7.30;;
69005;SDS011;56061;51.748;19.620;2023-03-05T15:43:01;13.60;;;6.60;;
69005;SDS011;56061;51.748;19.620;2023-03-05T15:45:27;13.10;;;6.10;;
69005;SDS011;56061;51.748;19.620;2023-03-05T15:47:56;13.70;;;6.50;;
69005;SDS011;56061;51.748;19.620;2023-03-05T15:50:23;13.20;;;7.50;;
69005;SDS011;56061;51.748;19.620;2023-03-05T15:52:50;14.30;;;7.30;;
69005;SDS011;56061;51.748;19.620;2023-03-05T15:55:17;13.20;;;7.20;;
69005;SDS011;56061;51.748;19.620;2023-03-05T15:57:47;15.40;;;7.40;;
69005;SDS011;56061;51.748;19.620;2023-03-05T16:00:18;16.00;;;7.60;;